Time;durP1;ratioP1;P1;durP2;ratioP2;P2;SDS_P1;SDS_P2;PMS_P1;PMS_P2;Temp;Humidity;BMP_temperature;BMP_pressure;BME280_temperature;BME280_humidity;BME280_pressure;Samples;Min_cycle;Max_cycle;Signal;HPM_P1;HPM_P2
2022/09/12 00:01:55;;;;;;;;;18.00;13.00;;;;;19.28;100.00;101257.78;5098845;27;45313;-73
2022/09/12 00:04:20;;;;;;;;;14.00;14.00;;;;;19.25;100.00;101261.41;5097643;27;53420;-74
2022/09/12 00:06:45;;;;;;;;;18.00;16.33;;;;;19.23;100.00;101263.25;5096791;27;66043;-74
2022/09/12 00:09:12;;;;;;;;;15.67;12.33;;;;;19.20;100.00;101260.59;5092986;27;45534;-76
2022/09/12 00:11:40;;;;;;;;;14.33;14.33;;;;;19.17;100.00;101265.13;5080178;27;45477;-76
2022/09/12 00:14:09;;;;;;;;;16.33;15.00;;;;;19.13;100.00;101255.41;5090244;27;45442;-74
2022/09/12 00:16:35;;;;;;;;;14.33;14.00;;;;;19.09;100.00;101246.53;5098096;27;46142;-74
2022/09/12 00:19:01;;;;;;;;;19.33;18.67;;;;;19.09;100.00;101258.13;5097696;27;45523;-73
2022/09/12 00:21:27;;;;;;;;;17.00;17.00;;;;;19.04;100.00;101243.94;5098514;27;45576;-73
2022/09/12 00:23:53;;;;;;;;;21.00;16.67;;;;;19.02;100.00;101250.22;5097422;27;45818;-73
2022/09/12 00:26:19;;;;;;;;;17.67;17.33;;;;;19.00;100.00;101242.22;5096750;27;67360;-73
2022/09/12 00:28:45;;;;;;;;;20.67;16.00;;;;;18.99;100.00;101237.78;5096700;27;45250;-73
2022/09/12 00:31:14;;;;;;;;;19.33;16.67;;;;;18.95;100.00;101229.81;5097613;27;45331;-73
2022/09/12 00:33:39;;;;;;;;;21.00;19.00;;;;;18.94;100.00;101236.97;5097883;27;45481;-73
2022/09/12 00:36:13;;;;;;;;;21.33;16.67;;;;;18.93;100.00;101237.00;5097555;27;46312;-74
2022/09/12 00:38:40;;;;;;;;;19.67;18.00;;;;;18.91;100.00;101236.13;5092280;27;45486;-72
2022/09/12 00:41:10;;;;;;;;;17.67;17.67;;;;;18.88;100.00;101222.81;5098170;27;45661;-73
2022/09/12 00:43:41;;;;;;;;;24.00;19.33;;;;;18.86;100.00;101216.63;5080001;27;45455;-73
2022/09/12 00:46:42;;;;;;;;;17.67;16.67;;;;;18.83;100.00;101210.38;5097675;27;45811;-73
2022/09/12 00:49:15;;;;;;;;;16.00;15.00;;;;;18.84;100.00;101209.47;5093072;27;45526;-73
2022/09/12 00:51:53;;;;;;;;;16.00;15.00;;;;;18.84;100.00;101204.13;5079074;27;45474;-73
2022/09/12 00:54:23;;;;;;;;;18.67;16.67;;;;;18.83;100.00;101205.03;5079043;27;45918;-73
2022/09/12 00:56:50;;;;;;;;;18.00;17.00;;;;;18.80;100.00;101199.75;5097550;27;45477;-73
2022/09/12 00:59:25;;;;;;;;;16.33;16.33;;;;;18.78;100.00;101204.22;5078849;27;45465;-73
2022/09/12 01:01:51;;;;;;;;;17.33;16.00;;;;;18.78;100.00;101198.00;5096206;27;45484;-73
2022/09/12 01:04:19;;;;;;;;;21.33;18.33;;;;;18.77;100.00;101207.81;5078892;27;45581;-74
2022/09/12 01:06:45;;;;;;;;;15.67;15.00;;;;;18.76;100.00;101210.53;5078277;27;46715;-72
2022/09/12 01:09:14;;;;;;;;;15.67;15.67;;;;;18.75;100.00;101203.38;5078441;27;59974;-74
2022/09/12 01:11:41;;;;;;;;;21.67;19.00;;;;;18.72;100.00;101201.66;5076762;27;45448;-73
2022/09/12 01:14:07;;;;;;;;;16.00;16.00;;;;;18.72;100.00;101201.66;5092957;27;45465;-73
2022/09/12 01:16:36;;;;;;;;;18.67;17.00;;;;;18.70;100.00;101192.78;5078390;27;52221;-73
2022/09/12 01:19:39;;;;;;;;;19.00;17.67;;;;;18.70;100.00;101194.59;5096619;27;45216;-75
2022/09/12 01:22:20;;;;;;;;;20.00;17.00;;;;;18.67;100.00;101195.47;5096450;27;46147;-75
2022/09/12 01:25:14;;;;;;;;;15.67;15.67;;;;;18.67;100.00;101195.47;5096677;27;47335;-73
2022/09/12 01:27:44;;;;;;;;;19.00;18.00;;;;;18.63;100.00;101183.06;5074522;27;45305;-73
2022/09/12 01:30:24;;;;;;;;;18.33;17.00;;;;;18.62;100.00;101180.41;5078322;27;46517;-73
2022/09/12 01:33:09;;;;;;;;;18.33;16.67;;;;;18.59;100.00;101184.03;5096652;27;45405;-73
2022/09/12 01:36:08;;;;;;;;;19.00;19.00;;;;;18.57;100.00;101184.03;5074436;27;45270;-74
2022/09/12 01:38:49;;;;;;;;;16.67;16.67;;;;;18.55;100.00;101182.31;5096904;27;45378;-73
2022/09/12 01:41:42;;;;;;;;;18.00;18.00;;;;;18.53;100.00;101173.41;5074281;27;45718;-73
2022/09/12 01:44:18;;;;;;;;;18.00;16.33;;;;;18.50;100.00;101181.50;5078768;27;45541;-73
2022/09/12 01:46:48;;;;;;;;;15.33;15.33;;;;;18.47;100.00;101166.38;5090448;27;45353;-75
2022/09/12 01:49:24;;;;;;;;;17.00;17.00;;;;;18.46;100.00;101174.44;5077337;27;46421;-72
2022/09/12 01:52:11;;;;;;;;;16.67;15.00;;;;;18.44;100.00;101174.47;5078634;27;45536;-73
2022/09/12 01:55:03;;;;;;;;;20.33;19.33;;;;;18.44;100.00;101176.25;5077080;27;45536;-73
2022/09/12 01:57:35;;;;;;;;;25.33;21.00;;;;;18.40;100.00;101170.06;5078313;27;45948;-73
2022/09/12 02:00:05;;;;;;;;;20.33;20.33;;;;;18.39;100.00;101173.66;5078203;27;46586;-73
2022/09/12 02:02:47;;;;;;;;;20.00;17.00;;;;;18.39;100.00;101170.97;5060148;27;46592;-73
2022/09/12 02:05:39;;;;;;;;;19.33;16.67;;;;;18.37;100.00;101162.06;5083479;27;45339;-73
2022/09/12 02:08:13;;;;;;;;;21.33;20.33;;;;;18.36;100.00;101167.47;5073258;27;45467;-72
2022/09/12 02:11:08;;;;;;;;;19.00;19.00;;;;;18.35;100.00;101168.38;5072569;27;45977;-74
2022/09/12 02:13:41;;;;;;;;;21.00;20.00;;;;;18.33;100.00;101171.06;5074624;27;45300;-73
2022/09/12 02:16:09;;;;;;;;;23.00;20.00;;;;;18.31;100.00;101160.38;5087484;27;45411;-73
2022/09/12 02:18:38;;;;;;;;;22.67;21.67;;;;;18.30;100.00;101163.97;5076982;27;45347;-73
2022/09/12 02:21:05;;;;;;;;;22.33;21.67;;;;;18.28;100.00;101163.13;5077818;27;45461;-73
2022/09/12 02:23:31;;;;;;;;;24.33;21.00;;;;;18.24;100.00;101153.38;5095690;27;45417;-73
2022/09/12 02:26:01;;;;;;;;;22.33;21.67;;;;;18.23;100.00;101151.63;5077104;27;45578;-73
2022/09/12 02:28:32;;;;;;;;;21.00;21.00;;;;;18.25;100.00;101151.59;5096129;27;45501;-73
2022/09/12 02:31:24;;;;;;;;;24.67;22.33;;;;;18.22;100.00;101154.31;5076873;27;46069;-73
2022/09/12 02:34:09;;;;;;;;;24.67;22.67;;;;;18.21;100.00;101148.06;5095894;27;45451;-73
2022/09/12 02:36:59;;;;;;;;;26.67;24.00;;;;;18.19;100.00;101144.53;5095201;27;45666;-74
2022/09/12 02:39:25;;;;;;;;;24.67;23.00;;;;;18.17;100.00;101143.69;5095787;27;45708;-74
2022/09/12 02:41:50;;;;;;;;;26.67;24.33;;;;;18.13;100.00;101138.41;5077038;27;70847;-73
2022/09/12 02:44:16;;;;;;;;;23.00;22.00;;;;;18.11;100.00;101135.78;5095209;27;45280;-73
2022/09/12 02:46:48;;;;;;;;;25.67;22.33;;;;;18.12;100.00;101136.66;5077664;27;45314;-74
2022/09/12 02:49:14;;;;;;;;;24.67;21.67;;;;;18.13;100.00;101133.94;5082564;27;45540;-73
2022/09/12 02:51:40;;;;;;;;;27.33;24.67;;;;;18.12;100.00;101136.66;5097504;27;46774;-73
2022/09/12 02:54:06;;;;;;;;;25.33;23.33;;;;;18.11;100.00;101126.84;5080388;27;45466;-73
2022/09/12 02:56:31;;;;;;;;;26.50;26.00;;;;;18.09;100.00;101115.31;5099495;27;47269;-72
2022/09/12 02:59:07;;;;;;;;;27.67;25.00;;;;;18.06;100.00;101114.47;5099756;27;45536;-74
2022/09/12 03:01:51;;;;;;;;;28.33;26.33;;;;;18.05;100.00;101123.34;5089757;27;46588;-73
2022/09/12 03:04:38;;;;;;;;;27.25;23.25;;;;;18.04;100.00;101116.25;5099017;27;45450;-74
2022/09/12 03:07:15;;;;;;;;;25.50;24.50;;;;;18.02;100.00;101114.53;5099510;27;45450;-75
2022/09/12 03:10:06;;;;;;;;;29.33;24.33;;;;;18.02;100.00;101111.84;5099287;27;45288;-73
2022/09/12 03:13:07;;;;;;;;;25.33;24.33;;;;;17.99;100.00;101106.53;5051305;27;45657;-73
2022/09/12 03:15:53;;;;;;;;;22.50;19.50;;;;;17.98;100.00;101108.34;5098132;27;45531;-73
2022/09/12 03:18:27;;;;;;;;;22.67;21.33;;;;;17.96;100.00;101106.63;5077807;28;45582;-73
2022/09/12 03:21:11;;;;;;;;;28.75;25.75;;;;;17.97;100.00;101103.91;5079230;27;45300;-73
2022/09/12 03:23:42;;;;;;;;;27.67;25.67;;;;;17.93;100.00;101095.97;5080719;27;45635;-73
2022/09/12 03:26:31;;;;;;;;;24.33;24.33;;;;;17.94;100.00;101095.94;5098839;27;45378;-73
2022/09/12 03:28:58;;;;;;;;;27.00;24.67;;;;;17.94;100.00;101095.94;5078483;27;45466;-75
2022/09/12 03:31:24;;;;;;;;;26.00;23.33;;;;;17.94;100.00;101087.91;5097951;27;55887;-73
2022/09/12 03:33:49;;;;;;;;;19.33;19.33;;;;;17.93;100.00;101087.94;5091926;27;46821;-73
2022/09/12 03:36:25;;;;;;;;;21.33;21.33;;;;;17.92;100.00;101088.84;5093212;27;45340;-72
2022/09/12 03:38:51;;;;;;;;;22.00;20.67;;;;;17.91;100.00;101093.31;5097815;27;45394;-73
2022/09/12 03:41:17;;;;;;;;;23.33;22.33;;;;;17.90;100.00;101082.66;5098403;27;49773;-74
2022/09/12 03:43:42;;;;;;;;;23.33;21.00;;;;;17.88;100.00;101084.44;5097643;27;45805;-73
2022/09/12 03:46:08;;;;;;;;;22.33;21.00;;;;;17.88;100.00;101076.44;5098957;27;45434;-73
2022/09/12 03:48:33;;;;;;;;;23.00;20.50;;;;;17.88;100.00;101074.66;5099228;27;45678;-73
2022/09/12 03:51:04;;;;;;;;;21.00;18.33;;;;;17.87;100.00;101078.22;5078914;27;45622;-72
2022/09/12 03:53:29;;;;;;;;;19.67;19.67;;;;;17.87;100.00;101080.03;5098960;27;45511;-75
2022/09/12 03:55:55;;;;;;;;;19.67;19.00;;;;;17.86;100.00;101076.47;5097476;27;45454;-74
2022/09/12 03:58:20;;;;;;;;;21.00;20.67;;;;;17.83;100.00;101081.84;5092643;27;45672;-73
2022/09/12 04:00:46;;;;;;;;;21.00;18.67;;;;;17.85;100.00;101095.19;5097899;27;55505;-73
2022/09/12 04:03:11;;;;;;;;;19.67;19.67;;;;;17.83;100.00;101094.31;5097447;27;64973;-73
2022/09/12 04:05:36;;;;;;;;;20.33;19.00;;;;;17.80;100.00;101098.81;5098532;27;45501;-73
2022/09/12 04:08:02;;;;;;;;;18.67;18.67;;;;;17.80;100.00;101100.59;5097595;27;58084;-75
2022/09/12 04:10:27;;;;;;;;;18.33;17.00;;;;;17.75;100.00;101089.97;5097693;27;57739;-75
2022/09/12 04:12:52;;;;;;;;;20.33;20.00;;;;;17.74;100.00;101088.22;5097949;27;53177;-73
2022/09/12 04:15:18;;;;;;;;;20.00;19.33;;;;;17.73;100.00;101090.91;5093560;27;63708;-73
2022/09/12 04:17:43;;;;;;;;;20.00;20.00;;;;;17.73;100.00;101101.59;5093619;27;45312;-73
2022/09/12 04:20:08;;;;;;;;;18.00;17.00;;;;;17.71;100.00;101098.03;5096532;27;59844;-73
2022/09/12 04:22:34;;;;;;;;;19.33;18.00;;;;;17.71;100.00;101114.94;5098101;27;55171;-73
2022/09/12 04:24:59;;;;;;;;;21.33;20.33;;;;;17.70;100.00;101107.81;5094015;27;45533;-74
2022/09/12 04:27:25;;;;;;;;;21.33;20.33;;;;;17.67;100.00;101101.63;5097226;27;45342;-73
2022/09/12 04:29:50;;;;;;;;;20.67;20.67;;;;;17.64;100.00;101099.91;5079512;27;54932;-73
2022/09/12 04:32:16;;;;;;;;;19.67;19.67;;;;;17.66;100.00;101100.75;5097476;27;46736;-73
2022/09/12 04:34:41;;;;;;;;;20.00;20.00;;;;;17.65;100.00;101087.44;5098239;27;45431;-73
2022/09/12 04:37:07;;;;;;;;;23.25;21.75;;;;;17.61;100.00;101089.25;5098266;27;45350;-75
2022/09/12 04:39:32;;;;;;;;;18.67;18.67;;;;;17.62;100.00;101099.03;5096712;27;45616;-73
2022/09/12 04:41:57;;;;;;;;;21.00;20.67;;;;;17.61;100.00;101099.94;5097422;27;66789;-75
2022/09/12 04:44:23;;;;;;;;;21.33;19.67;;;;;17.60;100.00;101100.84;5096927;27;60084;-73
2022/09/12 04:46:48;;;;;;;;;21.67;18.67;;;;;17.58;100.00;101091.97;5097266;27;58613;-74
2022/09/12 04:49:18;;;;;;;;;23.33;18.67;;;;;17.56;100.00;101083.09;5097396;27;57390;-74
2022/09/12 04:51:44;;;;;;;;;21.00;19.00;;;;;17.55;100.00;101089.34;5097236;27;45613;-72
2022/09/12 04:54:15;;;;;;;;;23.50;20.50;;;;;17.55;100.00;101084.00;5096562;27;46134;-73
2022/09/12 04:56:43;;;;;;;;;23.00;21.00;;;;;17.55;100.00;101087.56;5097282;27;45548;-73
2022/09/12 04:59:09;;;;;;;;;19.33;19.00;;;;;17.55;100.00;101086.66;5097027;27;45625;-73
2022/09/12 05:01:35;;;;;;;;;21.75;21.50;;;;;17.52;100.00;101074.25;5097107;27;45559;-73
2022/09/12 05:04:01;;;;;;;;;20.00;20.00;;;;;17.52;100.00;101073.34;5096918;27;45327;-73
2022/09/12 05:06:32;;;;;;;;;23.67;22.00;;;;;17.52;100.00;101068.00;5097329;27;45538;-75
2022/09/12 05:08:58;;;;;;;;;17.67;17.67;;;;;17.51;100.00;101067.13;5084187;27;45377;-74
2022/09/12 05:11:26;;;;;;;;;26.00;21.00;;;;;17.51;100.00;101058.25;5088288;27;47532;-74
2022/09/12 05:13:52;;;;;;;;;26.00;23.00;;;;;17.51;100.00;101064.47;5093888;27;45514;-73
2022/09/12 05:16:18;;;;;;;;;22.67;21.33;;;;;17.49;100.00;101068.94;5095019;27;45506;-75
2022/09/12 05:18:45;;;;;;;;;22.00;22.00;;;;;17.52;100.00;101076.03;5093916;27;45587;-73
2022/09/12 05:21:13;;;;;;;;;22.67;20.67;;;;;17.52;100.00;101078.69;5097042;27;46423;-72
2022/09/12 05:23:39;;;;;;;;;29.00;23.33;;;;;17.51;100.00;101067.13;5095514;27;45313;-73
2022/09/12 05:26:05;;;;;;;;;18.67;18.67;;;;;17.50;100.00;101073.38;5094636;27;45509;-73
2022/09/12 05:28:33;;;;;;;;;21.67;20.00;;;;;17.50;100.00;101078.72;5093154;27;45399;-74
2022/09/12 05:31:00;;;;;;;;;25.33;20.00;;;;;17.50;100.00;101077.84;5087167;27;46380;-76
2022/09/12 05:33:26;;;;;;;;;23.00;20.67;;;;;17.48;100.00;101085.88;5089197;27;45476;-75
2022/09/12 05:35:51;;;;;;;;;18.00;16.67;;;;;17.49;100.00;101076.09;5083666;27;45443;-76
2022/09/12 05:38:17;;;;;;;;;24.67;20.67;;;;;17.48;100.00;101068.97;5084831;27;45555;-76
2022/09/12 05:40:42;;;;;;;;;23.67;19.33;;;;;17.49;100.00;101063.63;5088068;27;52268;-75
2022/09/12 05:43:07;;;;;;;;;19.67;19.67;;;;;17.49;100.00;101062.72;5092635;27;61588;-75
2022/09/12 05:45:33;;;;;;;;;18.67;17.67;;;;;17.51;100.00;101063.59;5093317;27;63432;-72
2022/09/12 05:47:59;;;;;;;;;22.67;20.67;;;;;17.42;100.00;101069.94;5095794;27;45435;-74
2022/09/12 05:50:24;;;;;;;;;21.00;19.33;;;;;17.35;100.00;101083.38;5092533;27;52387;-73
2022/09/12 05:52:49;;;;;;;;;22.67;20.67;;;;;17.24;100.00;101076.38;5093057;27;45798;-71
2022/09/12 05:55:15;;;;;;;;;21.67;20.33;;;;;17.15;100.00;101084.53;5075357;27;45677;-73
2022/09/12 05:57:44;;;;;;;;;20.00;19.00;;;;;17.08;100.00;101080.16;5093679;27;45435;-75
2022/09/12 06:00:11;;;;;;;;;19.33;18.00;;;;;17.06;100.00;101075.75;5088486;27;46902;-74
2022/09/12 06:02:36;;;;;;;;;17.33;17.00;;;;;17.01;100.00;101073.13;5094104;27;45502;-73
2022/09/12 06:05:02;;;;;;;;;18.00;18.00;;;;;17.01;100.00;101070.47;5091499;27;45568;-72
2022/09/12 06:07:28;;;;;;;;;23.25;18.75;;;;;17.00;100.00;101076.69;5091020;27;45565;-72
2022/09/12 06:09:53;;;;;;;;;23.00;19.33;;;;;16.98;100.00;101067.81;5078385;27;45751;-70
2022/09/12 06:12:18;;;;;;;;;22.00;17.67;;;;;17.01;100.00;101078.47;5090017;27;62910;-72
2022/09/12 06:14:44;;;;;;;;;19.33;17.33;;;;;17.01;100.00;101079.34;5093849;27;45836;-74
2022/09/12 06:17:09;;;;;;;;;24.00;21.00;;;;;17.07;100.00;101089.06;5076923;27;58353;-75
2022/09/12 06:19:35;;;;;;;;;21.33;20.33;;;;;17.07;100.00;101082.84;5066725;28;46335;-71
2022/09/12 06:22:00;;;;;;;;;20.67;20.67;;;;;17.11;100.00;101098.81;5071788;27;58585;-73
2022/09/12 06:24:26;;;;;;;;;20.33;18.00;;;;;17.13;100.00;101088.97;5073408;27;45633;-73
2022/09/12 06:26:51;;;;;;;;;21.00;21.00;;;;;17.16;100.00;101091.63;5072037;28;45556;-75
2022/09/12 06:29:20;;;;;;;;;19.33;19.00;;;;;17.19;100.00;101096.91;5073912;27;64684;-74
2022/09/12 06:31:45;;;;;;;;;21.67;21.67;;;;;17.20;100.00;101093.34;5065907;28;45552;-72
2022/09/12 06:34:13;;;;;;;;;19.33;19.33;;;;;17.23;100.00;101093.31;5069087;27;66216;-73
2022/09/12 06:36:47;;;;;;;;;18.67;18.00;;;;;17.26;100.00;101095.94;5068884;28;45530;-74
2022/09/12 06:39:15;;;;;;;;;22.33;19.33;;;;;17.27;100.00;101087.03;5070212;28;46573;-76
2022/09/12 06:41:40;;;;;;;;;10.33;10.33;;;;;17.26;100.00;101090.63;5067014;28;45547;-73
2022/09/12 06:44:06;;;;;;;;;20.25;18.50;;;;;17.29;100.00;101093.22;5071677;28;45530;-73
2022/09/12 06:46:31;;;;;;;;;28.25;21.25;;;;;17.26;100.00;101095.94;5073894;27;55434;-75
2022/09/12 06:48:59;;;;;;;;;19.25;16.75;;;;;17.28;100.00;101101.25;5072508;27;45699;-73
2022/09/12 06:51:25;;;;;;;;;18.00;18.00;;;;;17.33;100.00;101098.53;5071144;27;45584;-73
2022/09/12 06:53:53;;;;;;;;;23.25;20.00;;;;;17.34;100.00;101092.28;5072568;27;45308;-75
2022/09/12 06:56:20;;;;;;;;;23.33;20.67;;;;;17.36;100.00;101093.16;5074999;27;45536;-73
2022/09/12 06:58:46;;;;;;;;;18.33;18.33;;;;;17.37;100.00;101084.25;5074049;27;45618;-76
2022/09/12 07:01:14;;;;;;;;;22.00;19.00;;;;;17.39;100.00;101083.31;5069385;27;45348;-73
2022/09/12 07:03:40;;;;;;;;;21.67;20.67;;;;;17.40;100.00;101082.41;5072739;28;45481;-73
2022/09/12 07:06:10;;;;;;;;;20.33;20.33;;;;;17.46;100.00;101081.44;5073729;27;46396;-76
2022/09/12 07:08:37;;;;;;;;;23.67;20.67;;;;;17.63;100.00;101087.47;5070508;28;47278;-73
2022/09/12 07:11:11;;;;;;;;;21.33;19.67;;;;;18.09;100.00;101084.13;5071329;28;45575;-74
2022/09/12 07:13:37;;;;;;;;;23.00;20.67;;;;;18.36;100.00;101088.13;5072849;27;45674;-74
2022/09/12 07:16:04;;;;;;;;;28.00;27.50;;;;;18.92;100.00;101080.91;5066690;28;45580;-73
2022/09/12 07:18:33;;;;;;;;;23.67;22.00;;;;;19.16;100.00;101075.97;5070343;28;46521;-73
2022/09/12 07:21:00;;;;;;;;;28.00;26.67;;;;;19.19;100.00;101079.47;5053079;28;45427;-73
2022/09/12 07:23:26;;;;;;;;;23.33;20.67;;;;;19.10;100.00;101072.50;5071678;28;45569;-73
2022/09/12 07:25:56;;;;;;;;;22.00;20.67;;;;;18.99;100.00;101084.34;5070398;28;45577;-73
2022/09/12 07:28:24;;;;;;;;;19.00;18.67;;;;;18.91;100.00;101079.16;5067961;28;47242;-76
2022/09/12 07:30:52;;;;;;;;;22.33;19.67;;;;;18.87;100.00;101081.91;5066745;28;45575;-74
2022/09/12 07:33:21;;;;;;;;;20.33;20.00;;;;;18.81;100.00;101083.78;5072565;28;45413;-75
2022/09/12 07:35:46;;;;;;;;;19.33;17.33;;;;;18.79;100.00;101085.59;5070986;28;45611;-73
2022/09/12 07:38:11;;;;;;;;;22.67;21.00;;;;;18.76;100.00;101087.47;5072092;28;45750;-74
2022/09/12 07:40:37;;;;;;;;;25.33;23.00;;;;;18.72;100.00;101080.41;5071213;28;61662;-73
2022/09/12 07:43:02;;;;;;;;;17.33;17.33;;;;;18.73;100.00;101077.69;5072966;28;45500;-73
2022/09/12 07:45:28;;;;;;;;;23.00;20.00;;;;;18.73;100.00;101071.47;5071924;28;46087;-73
2022/09/12 07:47:53;;;;;;;;;25.67;20.67;;;;;18.73;100.00;101080.38;5074492;28;46321;-72
2022/09/12 07:50:19;;;;;;;;;25.67;22.67;;;;;18.73;100.00;101079.50;5076040;28;45564;-73
2022/09/12 07:52:44;;;;;;;;;24.00;23.00;;;;;18.73;100.00;101080.38;5075467;28;60182;-75
2022/09/12 07:55:10;;;;;;;;;26.33;20.33;;;;;18.77;100.00;101084.75;5057943;28;45873;-73
2022/09/12 07:57:35;;;;;;;;;24.67;22.33;;;;;18.81;100.00;101081.13;5072128;28;46439;-74
2022/09/12 08:00:00;;;;;;;;;21.33;20.00;;;;;18.87;100.00;101085.47;5075044;28;45477;-73
2022/09/12 08:02:26;;;;;;;;;22.67;22.67;;;;;18.92;100.00;101093.41;5074689;28;45434;-72
2022/09/12 08:04:51;;;;;;;;;26.33;23.33;;;;;18.98;100.00;101087.94;5075397;28;55545;-75
2022/09/12 08:07:18;;;;;;;;;26.00;23.00;;;;;19.03;100.00;101073.56;5075627;28;46744;-73
2022/09/12 08:09:43;;;;;;;;;22.33;22.00;;;;;19.13;100.00;101076.06;5076432;28;45426;-74
2022/09/12 08:12:09;;;;;;;;;24.33;20.67;;;;;19.19;100.00;101074.13;5076584;28;56507;-73
2022/09/12 08:14:34;;;;;;;;;25.00;23.33;;;;;19.26;100.00;101065.03;5073064;28;45327;-74
2022/09/12 08:16:59;;;;;;;;;25.67;23.33;;;;;19.37;100.00;101076.41;5076443;27;55622;-72
2022/09/12 08:19:25;;;;;;;;;26.00;22.00;;;;;19.44;100.00;101079.84;5070411;28;45478;-73
2022/09/12 08:21:50;;;;;;;;;22.33;20.33;;;;;19.48;100.00;101073.50;5069356;28;47381;-74
2022/09/12 08:24:16;;;;;;;;;29.00;24.33;;;;;19.55;100.00;101077.81;5069952;28;56320;-74
2022/09/12 08:26:42;;;;;;;;;27.33;26.67;;;;;19.59;100.00;101073.28;5073628;28;45677;-72
2022/09/12 08:29:07;;;;;;;;;23.67;23.00;;;;;19.66;100.00;101079.41;5074410;27;45362;-73
2022/09/12 08:31:35;;;;;;;;;26.67;23.67;;;;;19.69;100.00;101076.66;5070419;27;46755;-73
2022/09/12 08:34:01;;;;;;;;;23.67;22.00;;;;;19.70;100.00;101075.72;5074775;28;45670;-73
2022/09/12 08:36:28;;;;;;;;;23.00;19.67;;;;;19.72;100.00;101068.56;5071816;28;46393;-74
2022/09/12 08:38:56;;;;;;;;;23.33;22.00;;;;;19.76;100.00;101072.91;5076610;28;47280;-73
2022/09/12 08:41:21;;;;;;;;;24.00;21.33;;;;;19.76;100.00;101073.81;5074635;28;45446;-72
2022/09/12 08:44:07;;;;;;;;;38.00;33.75;;;;;19.78;100.00;101066.59;5073050;28;46111;-74
2022/09/12 08:46:48;;;;;;;;;24.00;22.67;;;;;19.80;100.00;101069.25;5053980;28;47278;-73
2022/09/12 08:49:28;;;;;;;;;25.67;21.33;;;;;19.83;100.00;101070.06;5053512;28;45420;-72
2022/09/12 08:51:55;;;;;;;;;24.67;20.33;;;;;19.86;100.00;101071.78;5070076;28;45632;-73
2022/09/12 08:54:25;;;;;;;;;23.67;18.33;;;;;19.91;100.00;101072.53;5054464;28;45502;-72
2022/09/12 08:57:01;;;;;;;;;15.33;15.33;;;;;19.97;100.00;101075.06;5072494;28;47389;-73
2022/09/12 08:59:36;;;;;;;;;19.33;16.67;;;;;20.00;100.00;101068.78;5069854;28;45645;-73
2022/09/12 09:02:03;;;;;;;;;23.67;18.67;;;;;20.05;100.00;101066.88;5055814;28;45612;-72
2022/09/12 09:04:50;;;;;;;;;19.67;18.00;;;;;20.13;100.00;101067.53;5040586;28;45627;-72
2022/09/12 09:07:16;;;;;;;;;18.33;17.33;;;;;20.20;100.00;101062.94;5056094;28;46154;-72
2022/09/12 09:09:50;;;;;;;;;20.00;17.00;;;;;20.23;100.00;101055.66;5073229;28;45560;-73
2022/09/12 09:12:39;;;;;;;;;20.00;20.00;;;;;20.30;100.00;101059.97;5048517;28;45562;-73
2022/09/12 09:15:20;;;;;;;;;18.00;16.67;;;;;20.38;100.00;101054.41;5056002;28;45620;-73
2022/09/12 09:17:53;;;;;;;;;16.67;16.67;;;;;20.44;100.00;101059.59;5088107;27;46619;-72
2022/09/12 09:20:44;;;;;;;;;23.00;17.67;;;;;20.50;100.00;101056.78;5093694;27;45402;-73
2022/09/12 09:23:41;;;;;;;;;13.33;12.67;;;;;20.60;100.00;101047.56;5077081;27;45553;-73
2022/09/12 09:26:25;;;;;;;;;15.33;14.00;;;;;20.69;100.00;101034.84;5075784;27;45552;-72
2022/09/12 09:29:10;;;;;;;;;15.00;14.67;;;;;20.81;100.00;101034.50;5094605;27;47259;-72
2022/09/12 09:31:39;;;;;;;;;17.67;14.67;;;;;20.90;100.00;101039.63;5073649;27;45510;-73
2022/09/12 09:34:21;;;;;;;;;17.33;16.00;;;;;21.02;100.00;101033.88;5095720;27;45499;-72
2022/09/12 09:36:51;;;;;;;;;11.67;10.67;;;;;21.13;100.00;101034.44;5094683;27;45304;-72
2022/09/12 09:39:42;;;;;;;;;18.67;14.67;;;;;21.24;100.00;101027.88;5076692;27;45773;-72
2022/09/12 09:42:15;;;;;;;;;19.33;13.33;;;;;21.34;100.00;101018.66;5077542;27;45388;-72
2022/09/12 09:44:42;;;;;;;;;13.67;11.00;;;;;21.48;100.00;101018.25;5086804;27;45484;-72
2022/09/12 09:47:10;;;;;;;;;14.00;13.33;;;;;21.67;100.00;101022.09;5092619;27;45498;-72
2022/09/12 09:49:36;;;;;;;;;15.67;12.00;;;;;21.85;100.00;101021.53;5074469;27;45650;-74
2022/09/12 09:52:02;;;;;;;;;12.33;10.67;;;;;22.02;100.00;101017.41;5092619;27;45552;-72
2022/09/12 09:54:32;;;;;;;;;8.00;8.00;;;;;22.17;100.00;101023.16;5073117;27;45454;-74
2022/09/12 09:56:58;;;;;;;;;10.00;10.00;;;;;22.28;100.00;101013.84;5091875;27;45636;-73
2022/09/12 09:59:30;;;;;;;;;12.67;10.33;;;;;22.42;100.00;101019.63;5089974;27;65886;-73
2022/09/12 10:02:10;;;;;;;;;10.00;10.00;;;;;22.52;100.00;101006.72;5089938;27;45747;-73
2022/09/12 10:04:40;;;;;;;;;6.67;6.67;;;;;22.58;100.00;101003.81;5087992;27;45483;-74
2022/09/12 10:07:05;;;;;;;;;9.67;8.00;;;;;22.64;100.00;101004.47;5071378;27;46417;-73
2022/09/12 10:09:33;;;;;;;;;9.33;6.00;;;;;22.69;100.00;100999.81;5068439;27;69219;-73
2022/09/12 10:12:00;;;;;;;;;9.33;7.33;;;;;22.72;100.00;100994.28;5072259;27;45561;-74
2022/09/12 10:14:36;;;;;;;;;8.33;8.33;;;;;22.77;100.00;100991.44;5089035;27;45918;-73
2022/09/12 10:17:24;;;;;;;;;6.33;6.33;;;;;22.79;100.00;100991.38;5115264;22;45957;-71
2022/09/12 10:19:49;;;;;;;;;9.33;7.00;;;;;22.80;100.00;100988.66;5050704;28;46536;-74
2022/09/12 10:22:17;;;;;;;;;10.00;8.00;;;;;22.84;100.00;100990.25;5069362;28;45528;-74
2022/09/12 10:24:47;;;;;;;;;7.00;7.00;;;;;22.85;100.00;100983.06;5052330;28;45613;-74
2022/09/12 10:27:19;;;;;;;;;7.67;6.67;;;;;22.87;100.00;100987.47;5055509;28;46036;-73
2022/09/12 10:29:49;;;;;;;;;8.33;8.33;;;;;22.92;100.00;100987.34;5070225;28;46550;-74
2022/09/12 10:32:28;;;;;;;;;8.67;6.00;;;;;22.96;100.00;100980.91;5072532;28;45672;-75
2022/09/12 10:34:59;;;;;;;;;6.67;6.00;;;;;23.03;100.00;100979.72;5072052;28;45664;-74
2022/09/12 10:37:31;;;;;;;;;10.00;7.00;;;;;23.12;100.00;100984.78;5054601;28;45486;-73
2022/09/12 10:39:58;;;;;;;;;8.67;7.00;;;;;23.20;100.00;100987.16;5055362;28;45784;-74
2022/09/12 10:42:45;;;;;;;;;6.33;5.33;;;;;23.26;100.00;100985.09;5073992;28;45431;-72
2022/09/12 10:45:23;;;;;;;;;5.67;4.00;;;;;23.29;100.00;100978.72;5073101;28;46770;-75
2022/09/12 10:47:49;;;;;;;;;5.33;4.33;;;;;23.33;100.00;100987.53;5073948;28;45445;-73
2022/09/12 10:50:41;;;;;;;;;5.00;5.00;;;;;23.42;100.00;100988.06;5073083;28;46442;-74
2022/09/12 10:53:24;;;;;;;;;4.00;4.00;;;;;23.49;100.00;100980.63;5063308;28;45484;-74
2022/09/12 10:56:02;;;;;;;;;2.00;2.00;;;;;23.59;100.00;100975.72;5043882;28;45624;-74
2022/09/12 10:58:35;;;;;;;;;4.00;4.00;;;;;23.71;100.00;100978.84;5072383;28;45533;-74
2022/09/12 11:01:35;;;;;;;;;4.67;3.00;;;;;23.84;100.00;100978.31;5067719;28;46308;-73
2022/09/12 11:04:31;;;;;;;;;4.00;4.00;;;;;23.96;100.00;100959.78;5050519;28;45554;-74
2022/09/12 11:07:14;;;;;;;;;4.00;4.00;;;;;24.09;100.00;100965.56;5073047;28;45622;-75
2022/09/12 11:09:45;;;;;;;;;7.33;5.67;;;;;24.21;100.00;100959.63;5070433;28;45436;-76
2022/09/12 11:12:46;;;;;;;;;4.67;3.67;;;;;24.28;100.00;100962.94;5066971;28;46322;-76
2022/09/12 11:15:11;;;;;;;;;5.33;5.00;;;;;24.26;100.00;100962.13;5031427;28;46078;-76
2022/09/12 11:17:46;;;;;;;;;3.67;3.67;;;;;24.23;100.00;100970.34;5072844;27;45570;-74
2022/09/12 11:20:36;;;;;;;;;3.33;3.33;;;;;24.16;100.00;100979.66;5070802;28;45478;-75
2022/09/12 11:23:29;;;;;;;;;4.33;4.33;;;;;24.08;100.00;100979.13;5073589;28;45597;-75